• Join FlightAware (Why Join?)
  • Login
  • US Flag 
02:35AM EDT


 

Airport Tracker/Info


-or-


 

Live Flight TrackerFlight Track Log ✈ EJA277 ✈ 03-May-2013 ✈ KHPN - KOMA

Flight Track Log - Related Links

Times and Time Zones

All times are in EDT time to prevent confusion due to time zone crossing. See the EJA277 flight status page for this flight to view local times or setup timezone preferences in your user account.

Time Position Orientation Groundspeed Altitude Reporting Facility
EDT Latitude Longitude Course Direction KTS MPH feet Rate Location/Type
10:17AM 41.0167 -73.7167 298° West 217 250 3,000  Level New York TRACON
10:18AM 41.0500 -73.8000 298° West 240 276 6,300 1,860 Climbing New York TRACON
10:19AM 41.0500 -73.9000 270° West 297 342 7,000 300 Climbing New York TRACON
10:20AM 41.0333 -74.0000 258° West 296 341 7,000 900 Level New York TRACON
10:21AM 41.0000 -74.1167 249° West 310 357 8,900 2,100 Climbing New York TRACON
10:22AM 40.9833 -74.2333 259° West 334 384 11,200 1,980 Climbing New York TRACON
10:24AM 40.9703 -74.4700 266° West 411 473 14,600 1,920 Climbing New York Center
10:25AM 40.9592 -74.6206 264° West 401 461 16,800 1,200 Climbing New York Center
10:26AM 40.9486 -74.7572 264° West 401 461 17,000 480 Climbing New York Center
10:27AM 40.9300 -74.9292 262° West 426 490 17,800 1,140 Climbing New York Center
10:28AM 40.8997 -75.0756 255° West 428 493 19,400 1,800 Climbing New York Center
10:29AM 40.8714 -75.2247 256° West 423 487 21,400 1,740 Climbing New York Center
10:30AM 40.8456 -75.3547 255° West 418 481 22,900 1,260 Climbing New York Center
10:31AM 40.8147 -75.5036 255° West 418 481 24,000 1,260 Climbing New York Center
10:32AM 40.7856 -75.6578 256° West 425 489 25,500 1,380 Climbing New York Center
10:33AM 40.7492 -75.8250 254° West 430 495 26,800 1,680 Climbing New York Center
10:34AM 40.7203 -75.9681 255° West 425 489 28,900 1,860 Climbing New York Center
10:35AM 40.6908 -76.1136 255° West 425 489 30,600 1,560 Climbing New York Center
10:36AM 40.6672 -76.2622 258° West 425 489 32,100 1,260 Climbing New York Center
10:37AM 40.6831 -76.3731 281° West 401 461 33,200 1,320 Climbing New York Center
10:38AM 40.7117 -76.5561 282° West 406 467 34,800 1,320 Climbing New York Center
10:39AM 40.7336 -76.7031 281° West 412 474 35,900 1,020 Climbing New York Center
10:40AM 40.7531 -76.8528 280° West 412 474 36,900 960 Climbing New York Center
10:41AM 40.7764 -77.0028 282° West 412 474 37,900 540 Climbing New York Center
10:42AM 40.7994 -77.1586 281° West 417 480 38,000  Climbing New York Center
10:43AM 40.8217 -77.3225 280° West 436 502 38,000  Level New York Center
10:44AM 40.8461 -77.4811 282° West 436 502 38,000  Level New York Center
10:46AM 40.8956 -77.8553 280° West 469 540 38,000 120 Level Cleveland Center
10:47AM 40.9203 -78.0219 281° West 464 534 38,400 420 Climbing Cleveland Center
10:48AM 40.9383 -78.1836 278° West 464 534 38,900 420 Climbing Cleveland Center
10:49AM 40.9581 -78.3311 280° West 464 534 39,300 480 Climbing Cleveland Center
10:50AM 40.9822 -78.5092 280° West 464 534 39,900 300 Climbing Cleveland Center
10:51AM 41.0017 -78.6708 279° West 464 534 40,000  Climbing Cleveland Center
10:52AM 41.0211 -78.8356 279° West 459 528 40,000  Level Cleveland Center
10:53AM 41.0403 -78.9975 279° West 459 528 40,000  Level Cleveland Center
10:54AM 41.0589 -79.1594 279° West 459 528 40,000  Level Cleveland Center
10:55AM 41.0756 -79.3244 278° West 459 528 40,000  Level Cleveland Center
10:56AM 41.0958 -79.4894 279° West 459 528 40,000  Level Cleveland Center
10:57AM 41.1142 -79.6544 278° West 459 528 40,000  Level Cleveland Center
10:58AM 41.1275 -79.7836 278° West 459 528 40,000  Level Cleveland Center
10:59AM 41.1456 -79.9819 277° West 465 535 40,000  Level Cleveland Center
11:00AM 41.1650 -80.1444 279° West 460 529 40,000  Level Cleveland Center
11:01AM 41.1822 -80.3100 278° West 460 529 40,000  Level Cleveland Center
11:02AM 41.1969 -80.4561 278° West 460 529 40,000  Level Cleveland Center
11:03AM 41.2136 -80.6217 278° West 460 529 40,000  Level Cleveland Center
11:04AM 41.2303 -80.7847 278° West 460 529 40,000  Level Cleveland Center
11:05AM 41.2486 -80.9642 278° West 460 529 40,000  Level Cleveland Center
11:06AM 41.2625 -81.1272 277° West 455 524 40,000  Level Cleveland Center
11:07AM 41.2783 -81.2878 278° West 449 517 40,000  Level Cleveland Center
11:08AM 41.2981 -81.4483 279° West 449 517 40,000  Level Cleveland Center
11:09AM 41.3111 -81.6114 276° West 449 517 40,000  Level Cleveland Center
11:10AM 41.3283 -81.7747 278° West 449 517 40,000  Level Cleveland Center
11:11AM 41.3411 -81.9411 276° West 449 517 40,000  Level Cleveland Center
11:12AM 41.3558 -82.1044 277° West 449 517 40,000  Level Cleveland Center
11:13AM 41.3639 -82.2681 274° West 449 517 40,000  Level Cleveland Center
11:14AM 41.3739 -82.4344 275° West 442 509 40,000  Level Cleveland Center
11:15AM 41.3836 -82.5978 275° West 442 509 40,000  Level Cleveland Center
11:16AM 41.3908 -82.7614 273° West 442 509 40,000  Level Cleveland Center
11:17AM 41.4003 -82.9250 274° West 447 514 40,000  Level Cleveland Center
11:18AM 41.4092 -83.0914 274° West 452 520 40,000  Level Cleveland Center
11:19AM 41.4142 -83.2386 273° West 452 520 40,000  Level Cleveland Center
11:20AM 41.4228 -83.4050 274° West 452 520 40,000  Level Cleveland Center
11:21AM 41.4331 -83.5717 275° West 452 520 40,000  Level Cleveland Center
11:22AM 41.4392 -83.7381 273° West 452 520 40,000  Level Cleveland Center
11:23AM 41.4469 -83.9019 274° West 452 520 40,000  Level Cleveland Center
11:24AM 41.4544 -84.0714 273° West 457 526 40,000  Level Cleveland Center
11:25AM 41.4617 -84.2381 273° West 462 532 40,000  Level Cleveland Center
11:27AM 41.4775 -84.5572 274° West 450 518 40,000  Level Chicago Center
11:28AM 41.4844 -84.7233 273° West 450 518 40,000  Level Chicago Center
11:29AM 41.4903 -84.8886 273° West 448 516 40,000  Level Chicago Center
11:30AM 41.4956 -85.0553 272° West 449 517 40,000  Level Chicago Center
11:31AM 41.5008 -85.2244 272° West 451 519 40,000  Level Chicago Center
11:32AM 41.5047 -85.3958 272° West 453 521 40,000  Level Chicago Center
11:33AM 41.5119 -85.5683 273° West 453 521 40,000  Level Chicago Center
11:34AM 41.5172 -85.7697 272° West 451 519 40,000  Level Chicago Center
11:35AM 41.5219 -85.9364 272° West 451 519 40,000  Level Chicago Center
11:36AM 41.5264 -86.1058 272° West 455 524 40,000  Level Chicago Center
11:37AM 41.5292 -86.2714 271° West 450 518 40,000  Level Chicago Center
11:38AM 41.5314 -86.4369 271° West 448 516 40,000  Level Chicago Center
11:39AM 41.5344 -86.6031 271° West 448 516 40,000  Level Chicago Center
11:40AM 41.5361 -86.7969 271° West 440 506 40,000  Level Chicago Center
11:41AM 41.5375 -86.9617 271° West 442 509 40,000  Level Chicago Center
11:42AM 41.5400 -87.1269 271° West 447 514 40,000  Level Chicago Center
11:43AM 41.5428 -87.2922 271° West 448 516 40,000  Level Chicago Center
11:45AM 41.5433 -87.4539 270° West 440 506 40,000  Level Chicago Center
11:46AM 41.5447 -87.6183 271° West 442 509 40,000  Level Chicago Center
11:47AM 41.5458 -87.8128 271° West 440 506 40,000  Level Chicago Center
11:48AM 41.5461 -87.9750 270° West 442 509 40,000  Level Chicago Center
11:49AM 41.5464 -88.1358 270° West 448 516 40,000  Level Chicago Center
11:50AM 41.5464 -88.3003 270° West 452 520 40,000  Level Chicago Center
11:51AM 41.5467 -88.4997 270° West 452 520 40,000  Level Chicago Center
11:52AM 41.5472 -88.6658 270° West 453 521 40,000  Level Chicago Center
11:53AM 41.5481 -88.8336 270° West 455 524 40,000  Level Chicago Center
11:54AM 41.5481 -89.0019 270° West 458 527 40,000  Level Chicago Center
11:55AM 41.5475 -89.1697 270° West 456 525 40,000  Level Chicago Center
11:56AM 41.5492 -89.3397 271° West 460 529 40,000  Level Chicago Center
11:57AM 41.5483 -89.5053 270° West 449 517 40,000  Level Chicago Center
11:58AM 41.5472 -89.7064 270° West 454 522 40,000  Level Chicago Center
11:59AM 41.5464 -89.8719 270° West 457 526 40,000  Level Chicago Center
12:00PM 41.5456 -90.0428 270° West 463 533 40,000  Level Chicago Center
12:01PM 41.5436 -90.2125 269° West 461 531 40,000  Level Chicago Center
12:02PM 41.5408 -90.3875 269° West 472 543 40,000  Level Chicago Center
12:03PM 41.5383 -90.5586 269° West 464 534 40,000  Level Chicago Center
12:04PM 41.5358 -90.7567 269° West 459 528 40,000  Level Chicago Center
12:05PM 41.5333 -90.9267 269° West 459 528 40,000  Level Chicago Center
12:06PM 41.5306 -91.0967 269° West 459 528 40,000  Level Chicago Center
12:07PM 41.5269 -91.2683 268° West 462 532 40,000  Level Chicago Center
12:08PM 41.5233 -91.4381 268° West 461 531 40,000  Level Chicago Center
12:09PM 41.5192 -91.6089 268° West 461 531 40,000  Level Chicago Center
12:10PM 41.5144 -91.7772 268° West 458 527 40,000  Level Chicago Center
12:11PM 41.5078 -91.9786 268° West 456 525 40,000  Level Chicago Center
12:12PM 41.5014 -92.1475 267° West 455 524 40,000  Level Chicago Center
12:13PM 41.4944 -92.3164 267° West 458 527 40,000  Level Chicago Center
12:14PM 41.4886 -92.4797 267° West 460 529 40,000 -120 Level Chicago Center
12:15PM 41.4817 -92.6494 267° West 462 532 39,800 -960 Descending Chicago Center
12:16PM 41.4736 -92.8472 267° West 452 520 38,100 -900 Descending Chicago Center
12:17PM 41.4667 -93.0181 267° West 463 533 38,000 -1,080 Descending Chicago Center
12:18PM 41.4586 -93.1900 266° West 469 540 36,000 -1,920 Descending Chicago Center
12:19PM 41.4506 -93.3653 267° West 477 549 34,100 -1,020 Descending Chicago Center
12:20PM 41.4417 -93.5436 266° West 486 559 34,000 -540 Descending Chicago Center
12:22PM 41.4419 -93.7514 270° West 473 544 33,100 -1,680 Descending Chicago Center
12:23PM 41.4533 -93.9372 275° West 509 586 30,600 -2,400 Descending Chicago Center
12:24PM 41.4672 -94.1600 275° West 512 589 27,800 -2,400 Descending Minneapolis Center
12:25PM 41.4733 -94.3494 273° West 515 593 25,400 -2,400 Descending Minneapolis Center
12:26PM 41.4814 -94.5403 273° West 517 595 23,000 -2,460 Descending Minneapolis Center
12:27PM 41.4931 -94.7292 275° West 514 592 20,400 -2,520 Descending Minneapolis Center
12:28PM 41.5161 -94.9247 279° West 478 550 18,200 -1,860 Descending Minneapolis Center
12:29PM 41.5125 -95.0783 268° West 473 544 16,700 -1,680 Descending Minneapolis Center
12:30PM 41.5050 -95.2375 266° West 446 513 14,700 -2,160 Descending Minneapolis Center
12:31PM 41.4742 -95.3958 255° West 388 447 12,300 -2,220 Descending Minneapolis Center
12:32PM 41.4539 -95.5172 257° West 310 357 10,300 -2,100 Descending Minneapolis Center
12:33PM 41.4269 -95.6150 250° West 302 348 8,400 -1,680 Descending Minneapolis Center
12:34PM 41.3964 -95.7161 248° West 293 337 7,100 -720 Descending Minneapolis Center
12:35PM 41.3397 -95.7783 220° Southwest 304 350 7,000 -840 Descending Minneapolis Center
12:36PM 41.2728 -95.7169 145° Southeast 289 333 5,500 -1,020 Descending Minneapolis Center
12:37PM 41.2206 -95.6567 139° Southeast 234 269 5,000 -420 Descending Minneapolis Center
12:37PM 41.2114 -95.6447 136° Southeast 276 318 5,000 -1,500 Level Minneapolis Center
12:38PM 41.1617 -95.6803 208° Southwest 259 298 3,500 -1,800 Descending Minneapolis Center
12:38PM 41.1456 -95.6989 221° Southwest 264 304 3,200 -480 Descending Minneapolis Center
12:39PM 41.1472 -95.7483 273° West 170 196 3,000 -120 Descending Minneapolis Center
12:40PM 41.1872 -95.7825 327° Northwest 162 186 3,000 -240 Level Minneapolis Center
12:41PM 41.2342 -95.8267 325° Northwest 177 204 2,600 -600 Descending Minneapolis Center
12:42PM 41.2611 -95.8542 323° Northwest 142 163 1,900 -600 Descending Minneapolis Center
12:42PM 41.2672 -95.8567 343° North 169 194 1,800 -660 Descending Minneapolis Center
12:43PM 41.2978 -95.8850 325° Northwest 131 151 1,000 -780 Descending Minneapolis Center